createdAt,value
2023-01-25T00:02:23.815Z,102932.78
2023-01-25T00:04:50.389Z,102930.81
2023-01-25T00:07:16.855Z,102931.22
2023-01-25T00:09:43.638Z,102921.34
2023-01-25T00:12:10.171Z,102930.19
2023-01-25T00:14:36.627Z,102889.81
2023-01-25T00:17:03.078Z,102902.72
2023-01-25T00:19:29.617Z,102874.84
2023-01-25T00:21:56.726Z,102909.25
2023-01-25T00:24:24.226Z,102916.63
2023-01-25T00:26:50.785Z,102916.56
2023-01-25T00:29:17.681Z,102884.78
2023-01-25T00:31:54.463Z,102909.47
2023-01-25T00:34:24.098Z,102918.78
2023-01-25T00:37:12.737Z,102913.75
2023-01-25T00:39:39.285Z,102912.69
2023-01-25T00:42:08.765Z,102906.56
2023-01-25T00:44:35.350Z,102847.78
2023-01-25T00:47:02.139Z,102869.41
2023-01-25T00:49:30.945Z,102863.25
2023-01-25T00:51:58.370Z,102884.69
2023-01-25T00:54:24.981Z,102861.03
2023-01-25T00:56:56.423Z,102887.91
2023-01-25T00:59:24.183Z,102826.81
2023-01-25T01:01:51.596Z,102872.97
2023-01-25T01:04:19.227Z,102839.28
2023-01-25T01:06:46.047Z,102873.88
2023-01-25T01:09:15.351Z,102872.31
2023-01-25T01:11:42.138Z,102825.72
2023-01-25T01:14:09.351Z,102880.41
2023-01-25T01:16:36.123Z,102877.00
2023-01-25T01:19:02.817Z,102882.13
2023-01-25T01:21:29.572Z,102869.75
2023-01-25T01:23:56.719Z,102875.00
2023-01-25T01:26:23.780Z,102895.59
2023-01-25T01:28:50.293Z,102861.28
2023-01-25T01:31:19.110Z,102897.09
2023-01-25T01:33:49.230Z,102836.66
2023-01-25T01:36:16.893Z,102897.47
2023-01-25T01:38:43.828Z,102890.66
2023-01-25T01:41:11.119Z,102866.00
2023-01-25T01:43:37.870Z,102869.16
2023-01-25T01:46:09.534Z,102889.91
2023-01-25T01:48:51.148Z,102892.63
2023-01-25T01:51:36.432Z,102871.84
2023-01-25T01:54:07.340Z,102889.47
2023-01-25T01:56:49.798Z,102870.75
2023-01-25T01:59:16.307Z,102874.41
2023-01-25T02:01:43.572Z,102812.13
2023-01-25T02:04:10.792Z,102874.03
2023-01-25T02:06:48.343Z,102856.44
2023-01-25T02:09:19.619Z,102874.13
2023-01-25T02:11:46.880Z,102877.00
2023-01-25T02:14:15.209Z,102855.56
2023-01-25T02:16:41.777Z,102869.91
2023-01-25T02:19:17.803Z,102831.72
2023-01-25T02:21:45.997Z,102879.56
2023-01-25T02:24:27.648Z,102877.50
2023-01-25T02:26:54.523Z,102873.53
2023-01-25T02:29:24.018Z,102838.41
2023-01-25T02:31:52.668Z,102879.91
2023-01-25T02:34:19.369Z,102882.16
2023-01-25T02:36:45.888Z,102833.47
2023-01-25T02:39:16.717Z,102866.09
2023-01-25T02:41:46.723Z,102868.69
2023-01-25T02:44:14.524Z,102881.03
2023-01-25T02:46:42.034Z,102873.19
2023-01-25T02:49:10.151Z,102877.19
2023-01-25T02:51:40.192Z,102872.00
2023-01-25T02:54:08.171Z,102868.34
2023-01-25T02:56:34.828Z,102865.53
2023-01-25T02:59:05.507Z,102860.00
2023-01-25T03:01:37.179Z,102872.78
2023-01-25T03:04:05.398Z,102875.19
2023-01-25T03:06:32.856Z,102858.91
2023-01-25T03:08:59.453Z,102868.66
2023-01-25T03:11:25.938Z,102844.22
2023-01-25T03:13:52.580Z,102859.63
2023-01-25T03:16:19.551Z,102825.81
2023-01-25T03:18:46.145Z,102848.59
2023-01-25T03:21:15.319Z,102816.28
2023-01-25T03:23:43.312Z,102852.88
2023-01-25T03:26:11.480Z,102856.53
2023-01-25T03:28:39.097Z,102850.28
2023-01-25T03:31:06.403Z,102822.72
2023-01-25T03:33:33.262Z,102822.16
2023-01-25T03:36:00.044Z,102829.13
2023-01-25T03:40:53.891Z,102831.31
2023-01-25T03:43:20.809Z,102780.03
2023-01-25T03:45:53.096Z,102805.25
2023-01-25T03:48:20.046Z,102760.44
2023-01-25T03:50:51.792Z,102772.50
2023-01-25T03:53:31.304Z,102784.13
2023-01-25T03:56:03.375Z,102792.16
2023-01-25T03:58:30.700Z,102788.13
2023-01-25T04:00:59.279Z,102789.88
2023-01-25T04:03:26.242Z,102795.28
2023-01-25T04:05:54.086Z,102788.44
2023-01-25T04:08:21.320Z,102784.41
2023-01-25T04:11:01.268Z,102776.06
2023-01-25T04:13:28.200Z,102754.13
2023-01-25T04:15:55.072Z,102784.03
2023-01-25T04:18:21.717Z,102777.94
2023-01-25T04:20:55.354Z,102779.00
2023-01-25T04:23:22.580Z,102749.84
2023-01-25T04:25:53.493Z,102774.97
2023-01-25T04:28:19.960Z,102726.72
2023-01-25T04:30:47.166Z,102770.56
2023-01-25T04:33:13.843Z,102732.84
2023-01-25T04:35:40.323Z,102714.19
2023-01-25T04:38:07.265Z,102755.66
2023-01-25T04:40:33.779Z,102748.47
2023-01-25T04:43:00.363Z,102757.81
2023-01-25T04:45:26.930Z,102746.00
2023-01-25T04:48:02.017Z,102752.75
2023-01-25T04:50:28.874Z,102749.44
2023-01-25T04:52:55.408Z,102742.28
2023-01-25T04:55:22.047Z,102736.66
2023-01-25T04:57:51.960Z,102741.84
2023-01-25T05:00:19.538Z,102740.19
2023-01-25T05:02:46.597Z,102718.31
2023-01-25T05:05:13.394Z,102738.03
2023-01-25T05:07:39.979Z,102703.06
2023-01-25T05:10:08.267Z,102738.66
2023-01-25T05:12:35.025Z,102743.31
2023-01-25T05:15:01.571Z,102740.72
2023-01-25T05:17:28.209Z,102752.94
2023-01-25T05:19:54.704Z,102746.16
2023-01-25T05:22:21.402Z,102710.56
2023-01-25T05:24:48.196Z,102738.56
2023-01-25T05:27:17.640Z,102745.78
2023-01-25T05:29:45.459Z,102748.78
2023-01-25T05:32:16.238Z,102745.56
2023-01-25T05:34:43.581Z,102709.09
2023-01-25T05:37:12.968Z,102755.63
2023-01-25T05:39:39.630Z,102704.78
2023-01-25T05:42:14.147Z,102694.31
2023-01-25T05:44:41.066Z,102729.41
2023-01-25T05:47:12.681Z,102742.44
2023-01-25T05:49:39.271Z,102694.78
2023-01-25T05:52:05.841Z,102670.34
2023-01-25T05:54:32.870Z,102755.78
2023-01-25T05:57:00.233Z,102724.34
2023-01-25T05:59:27.198Z,102752.84
2023-01-25T06:01:53.867Z,102751.84
2023-01-25T06:04:20.671Z,102738.91
2023-01-25T06:06:47.262Z,102720.78
2023-01-25T06:09:14.569Z,102704.97
2023-01-25T06:11:47.954Z,102734.16
2023-01-25T06:14:14.732Z,102732.56
2023-01-25T06:16:41.593Z,102723.34
2023-01-25T06:19:08.712Z,102716.03
2023-01-25T06:21:38.792Z,102725.13
2023-01-25T06:24:05.711Z,102729.66
2023-01-25T06:26:32.334Z,102729.31
2023-01-25T06:28:59.134Z,102702.53
2023-01-25T06:31:25.843Z,102683.00
2023-01-25T06:33:53.072Z,102732.84
2023-01-25T06:36:20.919Z,102731.81
2023-01-25T06:38:51.815Z,102730.66
2023-01-25T06:41:19.485Z,102687.47
2023-01-25T06:43:47.848Z,102739.84
2023-01-25T06:46:14.694Z,102718.81
2023-01-25T06:48:42.957Z,102745.56
2023-01-25T06:51:11.691Z,102701.66
2023-01-25T06:53:40.403Z,102734.75
2023-01-25T06:56:12.463Z,102743.47
2023-01-25T06:58:39.765Z,102742.56
2023-01-25T07:01:15.893Z,102693.22
2023-01-25T07:03:42.876Z,102741.50
2023-01-25T07:06:11.286Z,102740.97
2023-01-25T07:08:39.650Z,102741.53
2023-01-25T07:11:09.607Z,102740.94
2023-01-25T07:13:36.123Z,102737.16
2023-01-25T07:16:05.655Z,102743.19
2023-01-25T07:18:32.816Z,102743.06
2023-01-25T07:21:07.950Z,102733.78
2023-01-25T07:23:34.953Z,102729.66
2023-01-25T07:26:01.876Z,102719.94
2023-01-25T07:28:28.919Z,102709.44
2023-01-25T07:30:55.562Z,102709.16
2023-01-25T07:33:22.125Z,102727.84
2023-01-25T07:35:51.003Z,102686.84
2023-01-25T07:38:17.795Z,102722.09
2023-01-25T07:40:44.628Z,102720.50
2023-01-25T07:43:11.191Z,102717.16
2023-01-25T07:45:38.016Z,102723.97
2023-01-25T07:48:09.958Z,102653.13
2023-01-25T07:50:36.551Z,102695.84
2023-01-25T07:53:03.207Z,102721.66
2023-01-25T07:55:29.711Z,102697.03
2023-01-25T07:57:56.381Z,102683.09
2023-01-25T08:00:24.152Z,102718.50
2023-01-25T08:02:52.115Z,102720.34
2023-01-25T08:05:19.724Z,102722.59
2023-01-25T08:07:47.362Z,102688.06
2023-01-25T08:10:14.396Z,102716.03
2023-01-25T08:12:45.666Z,102718.00
2023-01-25T08:15:15.385Z,102713.94
2023-01-25T08:17:41.989Z,102711.97
2023-01-25T08:20:09.898Z,102717.31
2023-01-25T08:22:36.571Z,102713.34
2023-01-25T08:25:04.385Z,102711.78
2023-01-25T08:27:30.964Z,102630.16
2023-01-25T08:29:57.527Z,102708.50
2023-01-25T08:32:24.279Z,102656.28
2023-01-25T08:34:51.026Z,102698.94
2023-01-25T08:37:17.557Z,102699.69
2023-01-25T08:39:44.157Z,102688.47
2023-01-25T08:42:10.783Z,102697.53
2023-01-25T08:44:37.328Z,102658.16
2023-01-25T08:47:04.128Z,102691.97
2023-01-25T08:49:31.724Z,102695.50
2023-01-25T08:51:58.589Z,102670.25
2023-01-25T08:54:25.248Z,102654.25
2023-01-25T08:56:52.036Z,102683.09
2023-01-25T08:59:18.595Z,102672.75
2023-01-25T09:01:45.142Z,102662.00
2023-01-25T09:04:11.707Z,102679.94
2023-01-25T09:06:38.317Z,102676.13
2023-01-25T09:09:04.932Z,102665.59
2023-01-25T09:11:33.609Z,102671.38
2023-01-25T09:14:00.085Z,102666.19
2023-01-25T09:16:30.271Z,102618.63
2023-01-25T09:18:58.799Z,102538.91
2023-01-25T09:21:25.768Z,102658.50
2023-01-25T09:24:09.708Z,102639.22
2023-01-25T09:26:42.973Z,102660.06
2023-01-25T09:29:11.629Z,102637.34
2023-01-25T09:31:45.180Z,102650.56
2023-01-25T09:34:13.287Z,102652.19
2023-01-25T09:36:41.054Z,102652.75
2023-01-25T09:39:07.704Z,102571.06
2023-01-25T09:42:00.722Z,102651.03
2023-01-25T09:44:42.446Z,102639.50
2023-01-25T09:47:14.920Z,102600.69
2023-01-25T09:50:12.992Z,102637.50
2023-01-25T09:53:19.146Z,102640.16
2023-01-25T09:55:51.113Z,102634.69
2023-01-25T09:58:21.321Z,102603.69
2023-01-25T10:00:50.994Z,102637.63
2023-01-25T10:03:20.640Z,102643.25
2023-01-25T10:05:49.847Z,102609.56
2023-01-25T10:08:48.046Z,102641.09
2023-01-25T10:11:19.443Z,102609.09
2023-01-25T10:13:46.078Z,102614.47
2023-01-25T10:16:37.492Z,102629.53
2023-01-25T10:19:24.434Z,102625.06
2023-01-25T10:21:58.622Z,102619.63
2023-01-25T10:25:13.732Z,102610.56
2023-01-25T10:27:50.744Z,102613.13
2023-01-25T10:30:27.717Z,102614.66
2023-01-25T10:33:11.927Z,102604.31
2023-01-25T10:35:43.116Z,102615.53
2023-01-25T10:38:21.825Z,102606.66
2023-01-25T10:40:53.563Z,102590.25
2023-01-25T10:43:23.379Z,102602.09
2023-01-25T10:45:50.667Z,102598.59
2023-01-25T10:48:21.864Z,102598.44
2023-01-25T10:50:51.704Z,102545.75
2023-01-25T10:53:37.253Z,102591.38
2023-01-25T10:56:13.033Z,102583.56
2023-01-25T10:58:42.385Z,102571.56
2023-01-25T11:01:30.241Z,102565.81
2023-01-25T11:03:57.633Z,102538.34
2023-01-25T11:06:47.574Z,102547.84
2023-01-25T11:09:29.553Z,102546.28
2023-01-25T11:11:57.336Z,102552.88
2023-01-25T11:14:27.222Z,102527.00
2023-01-25T11:16:55.887Z,102511.31
2023-01-25T11:19:39.880Z,102520.09
2023-01-25T11:22:18.968Z,102534.16
2023-01-25T11:24:46.119Z,102498.78
2023-01-25T11:27:24.620Z,102498.75
2023-01-25T11:30:12.843Z,102527.72
2023-01-25T11:32:40.504Z,102519.66
2023-01-25T11:35:25.556Z,102518.84
2023-01-25T11:38:14.186Z,102510.31
2023-01-25T11:41:18.391Z,102499.38
2023-01-25T11:43:56.391Z,102444.06
2023-01-25T11:46:29.331Z,102483.03
2023-01-25T11:49:18.973Z,102486.38
2023-01-25T11:52:13.537Z,102469.41
2023-01-25T11:55:01.979Z,102466.22
2023-01-25T11:57:39.860Z,102463.47
2023-01-25T12:00:28.914Z,102462.19
2023-01-25T12:03:03.629Z,102457.94
2023-01-25T12:06:04.276Z,102448.03
2023-01-25T12:09:03.363Z,102447.00
2023-01-25T12:12:10.013Z,102433.84
2023-01-25T12:14:48.723Z,102428.47
2023-01-25T12:18:09.172Z,102412.13
2023-01-25T12:21:22.926Z,102418.81
2023-01-25T12:24:18.171Z,102407.44
2023-01-25T12:27:09.738Z,102388.78
2023-01-25T12:29:41.116Z,102285.44
2023-01-25T12:32:51.768Z,102388.88
2023-01-25T12:35:23.756Z,102390.31
2023-01-25T12:37:55.617Z,102332.81
2023-01-25T12:40:40.868Z,102344.31
2023-01-25T12:43:24.743Z,102336.13
2023-01-25T12:45:51.729Z,102344.59
2023-01-25T12:48:28.903Z,102335.75
2023-01-25T12:50:59.923Z,102331.47
2023-01-25T12:53:41.850Z,102319.34
2023-01-25T12:56:11.830Z,102317.31
2023-01-25T12:58:44.189Z,102279.94
2023-01-25T13:01:27.593Z,102312.56
2023-01-25T13:04:23.587Z,102301.53
2023-01-25T13:07:15.502Z,102295.34
2023-01-25T13:09:59.750Z,102289.75
2023-01-25T13:12:26.516Z,102254.13
2023-01-25T13:14:53.405Z,102263.22
2023-01-25T13:17:41.185Z,102275.34
2023-01-25T13:20:38.805Z,102264.34
2023-01-25T13:23:13.072Z,102250.63
2023-01-25T13:25:39.536Z,102275.00
2023-01-25T13:28:40.703Z,102265.63
2023-01-25T13:31:07.291Z,102269.78
2023-01-25T13:33:35.783Z,102259.81
2023-01-25T13:36:39.899Z,102263.28
2023-01-25T13:39:32.983Z,102249.00
2023-01-25T13:41:59.898Z,102243.41
2023-01-25T13:44:28.800Z,102215.91
2023-01-25T13:47:03.748Z,102221.25
2023-01-25T13:49:41.512Z,102241.22
2023-01-25T13:52:11.793Z,102249.63
2023-01-25T13:54:49.674Z,102208.13
2023-01-25T13:57:22.022Z,102221.47
2023-01-25T13:59:50.794Z,102240.00
2023-01-25T14:02:20.828Z,102238.09
2023-01-25T14:04:48.768Z,102234.97
2023-01-25T14:07:20.511Z,102227.53
2023-01-25T14:09:48.474Z,102205.28
2023-01-25T14:12:33.963Z,102221.25
2023-01-25T14:15:23.103Z,102232.91
2023-01-25T14:18:15.189Z,102226.38
2023-01-25T14:20:42.970Z,102230.66
2023-01-25T14:23:30.929Z,102225.00
2023-01-25T14:25:59.239Z,102162.75
2023-01-25T14:28:26.991Z,102112.16
2023-01-25T14:30:55.808Z,102161.09
2023-01-25T14:33:27.257Z,102192.75
2023-01-25T14:36:00.055Z,102163.28
2023-01-25T14:38:33.080Z,102210.34
2023-01-25T14:41:18.338Z,102210.59
2023-01-25T14:43:53.776Z,102203.09
2023-01-25T14:46:28.570Z,102209.59
2023-01-25T14:49:26.851Z,102207.81
2023-01-25T14:52:05.853Z,102203.88
2023-01-25T14:54:35.072Z,102195.25
2023-01-25T14:57:05.228Z,102203.28
2023-01-25T14:59:36.259Z,102191.03
2023-01-25T15:02:15.063Z,102193.78
2023-01-25T15:05:11.100Z,102191.09
2023-01-25T15:07:49.030Z,102184.31
2023-01-25T15:10:28.843Z,102181.44
2023-01-25T15:13:12.832Z,102182.06
2023-01-25T15:16:10.081Z,102174.59
2023-01-25T15:18:53.964Z,102163.66
2023-01-25T15:21:30.063Z,102165.53
2023-01-25T15:23:58.595Z,102141.72
2023-01-25T15:26:29.796Z,102168.94
2023-01-25T15:29:02.308Z,102136.94
2023-01-25T15:31:31.580Z,102156.91
2023-01-25T15:33:58.924Z,102155.97
2023-01-25T15:36:26.020Z,102161.22
2023-01-25T15:38:52.566Z,102146.13
2023-01-25T15:41:19.208Z,102095.31
2023-01-25T15:43:46.685Z,102137.06
2023-01-25T15:46:19.460Z,102144.44
2023-01-25T15:48:46.741Z,102104.53
2023-01-25T15:51:13.392Z,102111.72
2023-01-25T15:53:40.222Z,102132.22
2023-01-25T15:56:12.562Z,102130.66
2023-01-25T15:58:42.201Z,102140.47
2023-01-25T16:01:09.134Z,102135.47
2023-01-25T16:03:35.999Z,102133.84
2023-01-25T16:06:20.136Z,102138.53
2023-01-25T16:08:46.728Z,102069.75
2023-01-25T16:11:13.399Z,102128.50
2023-01-25T16:13:41.478Z,102007.25
2023-01-25T16:16:17.465Z,102106.34
2023-01-25T16:18:44.200Z,102023.16
2023-01-25T16:21:12.537Z,102123.06
2023-01-25T16:23:39.559Z,102127.03
2023-01-25T16:26:16.457Z,102077.50
2023-01-25T16:28:43.019Z,102119.47
2023-01-25T16:31:30.819Z,102114.75
2023-01-25T16:33:58.422Z,102108.47
2023-01-25T16:36:25.169Z,102103.56
2023-01-25T16:38:51.752Z,102106.47
2023-01-25T16:41:18.796Z,102066.69
2023-01-25T16:43:47.217Z,102110.91
2023-01-25T16:46:22.339Z,102113.41
2023-01-25T16:48:51.143Z,102078.34
2023-01-25T16:51:20.943Z,102102.31
2023-01-25T16:53:48.649Z,102099.38
2023-01-25T16:56:19.576Z,102103.34
2023-01-25T16:58:46.723Z,102057.66
2023-01-25T17:01:14.391Z,102090.53
2023-01-25T17:03:41.185Z,102092.31
2023-01-25T17:06:08.114Z,102089.19
2023-01-25T17:08:34.719Z,102086.63
2023-01-25T17:11:05.565Z,102083.97
2023-01-25T17:13:32.319Z,102059.72
2023-01-25T17:16:00.859Z,102091.28
2023-01-25T17:18:28.058Z,102040.94
2023-01-25T17:20:58.388Z,102079.19
2023-01-25T17:23:25.204Z,101999.06
2023-01-25T17:25:51.879Z,102020.75
2023-01-25T17:28:18.353Z,102076.75
2023-01-25T17:30:44.952Z,102064.97
2023-01-25T17:33:12.801Z,102056.31
2023-01-25T17:35:39.385Z,102061.69
2023-01-25T17:38:06.020Z,102058.66
2023-01-25T17:40:34.878Z,102067.28
2023-01-25T17:43:01.818Z,102023.59
2023-01-25T17:45:28.358Z,102061.22
2023-01-25T17:47:54.879Z,102014.53
2023-01-25T17:50:21.600Z,102064.72
2023-01-25T17:52:48.483Z,102012.94
2023-01-25T17:55:15.060Z,102067.56
2023-01-25T17:57:41.656Z,102074.34
2023-01-25T18:00:11.851Z,102051.03
2023-01-25T18:02:38.807Z,102038.88
2023-01-25T18:05:08.095Z,102073.84
2023-01-25T18:07:34.606Z,102087.28
2023-01-25T18:10:01.117Z,102009.72
2023-01-25T18:12:28.008Z,102031.31
2023-01-25T18:14:54.509Z,102042.41
2023-01-25T18:17:20.999Z,102033.56
2023-01-25T18:19:48.965Z,102050.91
2023-01-25T18:22:16.186Z,102020.31
2023-01-25T18:24:44.177Z,102053.34
2023-01-25T18:27:24.564Z,102040.28
2023-01-25T18:29:59.683Z,102045.00
2023-01-25T18:32:26.899Z,102043.00
2023-01-25T18:34:53.613Z,102016.19
2023-01-25T18:37:25.624Z,101996.41
2023-01-25T18:39:54.951Z,102026.03
2023-01-25T18:42:23.954Z,102031.88
2023-01-25T18:44:50.660Z,102028.66
2023-01-25T18:47:18.933Z,102001.06
2023-01-25T18:49:50.177Z,102022.63
2023-01-25T18:52:18.303Z,102018.91
2023-01-25T18:54:45.239Z,102018.06
2023-01-25T18:57:13.293Z,102013.00
2023-01-25T18:59:40.302Z,102013.03
2023-01-25T19:02:07.872Z,102010.03
2023-01-25T19:04:34.432Z,101974.28
2023-01-25T19:07:01.697Z,101945.03
2023-01-25T19:09:28.673Z,101994.13
2023-01-25T19:11:55.522Z,102002.84
2023-01-25T19:14:22.872Z,101984.03
2023-01-25T19:16:49.828Z,101996.06
2023-01-25T19:19:16.658Z,101978.94
2023-01-25T19:21:43.216Z,101976.06
2023-01-25T19:24:15.276Z,101981.78
2023-01-25T19:26:42.028Z,101974.75
2023-01-25T19:29:09.279Z,101969.69
2023-01-25T19:31:37.300Z,101922.59
2023-01-25T19:34:06.053Z,101968.25
2023-01-25T19:36:36.084Z,101957.25
2023-01-25T19:39:04.076Z,101956.00
2023-01-25T19:41:31.369Z,101945.22
2023-01-25T19:44:00.148Z,101937.75
2023-01-25T19:46:30.127Z,101937.69
2023-01-25T19:48:58.268Z,101899.00
2023-01-25T19:51:33.002Z,101935.16
2023-01-25T19:54:00.919Z,101923.13
2023-01-25T19:56:29.285Z,101899.41
2023-01-25T19:58:55.958Z,101825.72
2023-01-25T20:01:24.426Z,101849.47
2023-01-25T20:03:51.761Z,101871.81
2023-01-25T20:06:19.912Z,101899.69
2023-01-25T20:08:47.504Z,101850.41
2023-01-25T20:11:15.109Z,101905.59
2023-01-25T20:13:42.689Z,101858.44
2023-01-25T20:16:11.051Z,101906.25
2023-01-25T20:18:37.879Z,101891.53
2023-01-25T20:21:06.724Z,101895.41
2023-01-25T20:23:38.592Z,101899.69
2023-01-25T20:26:15.528Z,101902.44
2023-01-25T20:28:43.075Z,101910.44
2023-01-25T20:31:26.221Z,101881.44
2023-01-25T20:33:58.222Z,101898.09
2023-01-25T20:36:25.667Z,101887.66
2023-01-25T20:38:52.395Z,101896.81
2023-01-25T20:41:19.192Z,101911.31
2023-01-25T20:43:53.464Z,101894.00
2023-01-25T20:46:21.745Z,101891.25
2023-01-25T20:48:49.054Z,101901.56
2023-01-25T20:51:21.468Z,101890.44
2023-01-25T20:53:49.310Z,101894.00
2023-01-25T20:56:16.949Z,101898.28
2023-01-25T20:58:50.202Z,101850.41
2023-01-25T21:01:22.346Z,101894.88
2023-01-25T21:03:49.558Z,101871.38
2023-01-25T21:06:17.040Z,101893.72
2023-01-25T21:08:43.693Z,101870.53
2023-01-25T21:11:11.519Z,101898.03
2023-01-25T21:13:38.038Z,101891.38
2023-01-25T21:16:06.118Z,101887.06
2023-01-25T21:18:33.853Z,101869.53
2023-01-25T21:21:07.465Z,101878.03
2023-01-25T21:23:34.818Z,101868.78
2023-01-25T21:26:02.435Z,101873.66
2023-01-25T21:28:29.540Z,101845.59
2023-01-25T21:30:56.431Z,101843.56
2023-01-25T21:33:23.571Z,101857.97
2023-01-25T21:35:54.281Z,101839.72
2023-01-25T21:38:20.960Z,101841.28
2023-01-25T21:40:47.805Z,101858.06
2023-01-25T21:43:16.298Z,101851.91
2023-01-25T21:46:01.484Z,101847.31
2023-01-25T21:48:46.851Z,101830.47
2023-01-25T21:51:32.390Z,101848.75
2023-01-25T21:53:59.257Z,101861.84
2023-01-25T21:56:25.798Z,101854.41
2023-01-25T21:58:52.497Z,101862.75
2023-01-25T22:01:20.119Z,101867.38
2023-01-25T22:03:50.481Z,101813.19
2023-01-25T22:06:18.358Z,101853.72
2023-01-25T22:08:45.153Z,101860.03
2023-01-25T22:11:12.082Z,101875.25
2023-01-25T22:13:38.993Z,101877.53
2023-01-25T22:16:07.205Z,101879.97
2023-01-25T22:18:35.965Z,101874.69
2023-01-25T22:21:05.256Z,101870.53
2023-01-25T22:23:32.986Z,101880.13
2023-01-25T22:26:08.037Z,101890.47
2023-01-25T22:28:46.546Z,101877.97
2023-01-25T22:31:22.290Z,101868.56
2023-01-25T22:33:49.323Z,101859.03
2023-01-25T22:36:17.780Z,101856.75
2023-01-25T22:38:44.370Z,101861.09
2023-01-25T22:41:16.637Z,101834.28
2023-01-25T22:43:43.810Z,101861.19
2023-01-25T22:46:12.303Z,101847.59
2023-01-25T22:48:39.107Z,101822.09
2023-01-25T22:51:08.070Z,101849.53
2023-01-25T22:53:35.114Z,101842.53
2023-01-25T22:56:03.380Z,101851.47
2023-01-25T22:58:30.522Z,101834.19
2023-01-25T23:00:57.489Z,101846.94
2023-01-25T23:03:24.319Z,101845.53
2023-01-25T23:06:05.475Z,101841.69
2023-01-25T23:08:33.867Z,101840.47
2023-01-25T23:11:11.608Z,101833.84
2023-01-25T23:13:39.848Z,101764.06
2023-01-25T23:16:08.250Z,101824.31
2023-01-25T23:18:49.905Z,101794.72
2023-01-25T23:21:18.084Z,101823.84
2023-01-25T23:23:44.754Z,101818.28
2023-01-25T23:26:11.527Z,101810.44
2023-01-25T23:28:38.468Z,101804.78
2023-01-25T23:31:21.641Z,101801.81
2023-01-25T23:33:56.613Z,101802.84
2023-01-25T23:36:27.896Z,101798.97
2023-01-25T23:38:55.007Z,101799.47
2023-01-25T23:41:23.527Z,101794.50
2023-01-25T23:43:50.336Z,101800.28
2023-01-25T23:46:17.155Z,101792.41
2023-01-25T23:48:44.248Z,101770.44
2023-01-25T23:51:11.853Z,101789.50
2023-01-25T23:53:39.111Z,101776.69
2023-01-25T23:56:15.003Z,101789.31
2023-01-25T23:58:41.701Z,101785.56
